createdAt,value
2018-04-15T00:00:49.121Z,48.34
2018-04-15T00:01:49.282Z,51.03
2018-04-15T00:02:49.464Z,55.66
2018-04-15T00:03:49.641Z,55.91
2018-04-15T00:04:49.835Z,50.05
2018-04-15T00:05:50.018Z,56.88
2018-04-15T00:06:50.201Z,50.54
2018-04-15T00:07:50.392Z,54.69
2018-04-15T00:08:50.554Z,49.07
2018-04-15T00:09:50.737Z,46.39
2018-04-15T00:10:50.913Z,64.94
2018-04-15T00:11:51.092Z,58.11
2018-04-15T00:12:51.279Z,55.18
2018-04-15T00:13:51.463Z,52.49
2018-04-15T00:14:51.654Z,46.63
2018-04-15T00:15:51.836Z,47.61
2018-04-15T00:16:52.012Z,53.71
2018-04-15T00:17:52.193Z,49.56
2018-04-15T00:18:52.382Z,50.78
2018-04-15T00:19:52.592Z,52.00
2018-04-15T00:20:52.746Z,49.07
2018-04-15T00:21:52.917Z,49.80
2018-04-15T00:22:53.095Z,49.32
2018-04-15T00:23:53.283Z,46.88
2018-04-15T00:24:53.458Z,56.40
2018-04-15T00:25:53.656Z,58.84
2018-04-15T00:26:53.823Z,58.35
2018-04-15T00:27:54.005Z,56.64
2018-04-15T00:28:54.209Z,54.44
2018-04-15T00:29:54.362Z,57.86
2018-04-15T00:30:54.533Z,58.35
2018-04-15T00:31:54.717Z,52.73
2018-04-15T00:32:54.906Z,55.18
2018-04-15T00:33:55.091Z,54.69
2018-04-15T00:34:55.265Z,50.54
2018-04-15T00:35:55.447Z,50.78
2018-04-15T00:36:55.876Z,48.83
2018-04-15T00:37:55.811Z,48.83
2018-04-15T00:38:55.997Z,59.33
2018-04-15T00:39:56.182Z,70.07
2018-04-15T00:40:56.364Z,52.25
2018-04-15T00:41:56.546Z,49.32
2018-04-15T00:42:56.726Z,62.50
2018-04-15T00:43:56.910Z,65.43
2018-04-15T00:44:57.095Z,53.71
2018-04-15T00:45:57.279Z,50.78
2018-04-15T00:46:57.489Z,46.88
2018-04-15T00:47:57.631Z,48.83
2018-04-15T00:48:57.805Z,50.54
2018-04-15T00:49:57.993Z,51.76
2018-04-15T00:50:58.158Z,51.51
2018-04-15T00:51:58.348Z,56.64
2018-04-15T00:52:58.524Z,70.56
2018-04-15T00:53:58.708Z,59.57
2018-04-15T00:54:58.884Z,56.40
2018-04-15T00:55:59.072Z,54.93
2018-04-15T00:56:59.250Z,53.71
2018-04-15T00:57:59.428Z,59.57
2018-04-15T00:58:59.607Z,54.44
2018-04-15T00:59:59.797Z,61.28
2018-04-15T01:00:59.970Z,60.06
2018-04-15T01:02:00.139Z,56.15
2018-04-15T01:03:00.322Z,60.55
2018-04-15T01:04:00.503Z,55.91
2018-04-15T01:05:00.685Z,57.37
2018-04-15T01:06:00.866Z,53.47
2018-04-15T01:07:01.048Z,50.05
2018-04-15T01:08:01.218Z,49.56
2018-04-15T01:09:01.401Z,49.07
2018-04-15T01:10:01.571Z,57.37
2018-04-15T01:11:01.748Z,52.00
2018-04-15T01:12:01.918Z,51.51
2018-04-15T01:13:02.100Z,52.00
2018-04-15T01:14:02.275Z,51.76
2018-04-15T01:15:02.458Z,46.88
2018-04-15T01:16:02.639Z,49.80
2018-04-15T01:17:02.807Z,49.56
2018-04-15T01:18:03.004Z,47.85
2018-04-15T01:19:03.180Z,45.17
2018-04-15T01:20:03.345Z,51.76
2018-04-15T01:21:03.532Z,49.56
2018-04-15T01:22:03.706Z,50.05
2018-04-15T01:23:03.891Z,50.54
2018-04-15T01:24:04.077Z,51.51
2018-04-15T01:25:04.254Z,48.34
2018-04-15T01:26:04.441Z,50.05
2018-04-15T01:27:04.612Z,48.58
2018-04-15T01:28:04.792Z,47.12
2018-04-15T01:29:04.977Z,45.90
2018-04-15T01:30:05.153Z,50.78
2018-04-15T01:31:05.335Z,50.78
2018-04-15T01:32:05.513Z,60.79
2018-04-15T01:33:05.709Z,56.64
2018-04-15T01:34:05.899Z,47.61
2018-04-15T01:35:06.078Z,50.29
2018-04-15T01:36:06.256Z,49.80
2018-04-15T01:37:06.437Z,49.56
2018-04-15T01:38:06.618Z,45.41
2018-04-15T01:39:06.799Z,54.20
2018-04-15T01:40:06.980Z,50.05
2018-04-15T01:41:07.160Z,48.58
2018-04-15T01:42:07.338Z,47.85
2018-04-15T01:43:07.531Z,46.14
2018-04-15T01:44:07.702Z,54.93
2018-04-15T01:45:07.878Z,59.33
2018-04-15T01:46:08.064Z,48.34
2018-04-15T01:47:08.241Z,48.58
2018-04-15T01:48:08.420Z,46.14
2018-04-15T01:49:08.599Z,52.98
2018-04-15T01:50:08.789Z,50.05
2018-04-15T01:51:08.962Z,45.41
2018-04-15T01:52:09.148Z,45.17
2018-04-15T01:53:09.324Z,44.68
2018-04-15T01:54:09.497Z,50.78
2018-04-15T01:55:09.922Z,48.58
2018-04-15T01:56:09.870Z,45.65
2018-04-15T01:57:10.043Z,62.99
2018-04-15T01:58:10.218Z,49.80
2018-04-15T01:59:10.384Z,49.80
2018-04-15T02:00:10.569Z,47.85
2018-04-15T02:01:10.752Z,47.85
2018-04-15T02:02:10.931Z,45.65
2018-04-15T02:03:11.117Z,49.07
2018-04-15T02:04:11.308Z,51.27
2018-04-15T02:05:11.495Z,64.21
2018-04-15T02:06:11.675Z,51.51
2018-04-15T02:07:11.842Z,48.10
2018-04-15T02:08:12.028Z,49.07
2018-04-15T02:09:12.212Z,55.66
2018-04-15T02:10:12.396Z,48.83
2018-04-15T02:11:12.591Z,48.34
2018-04-15T02:12:12.766Z,54.44
2018-04-15T02:13:12.947Z,50.54
2018-04-15T02:14:13.126Z,48.83
2018-04-15T02:15:13.540Z,45.17
2018-04-15T02:16:13.473Z,47.85
2018-04-15T02:17:13.652Z,49.56
2018-04-15T02:18:13.830Z,54.69
2018-04-15T02:19:14.010Z,53.22
2018-04-15T02:20:14.187Z,71.78
2018-04-15T02:21:14.377Z,55.42
2018-04-15T02:22:14.548Z,58.11
2018-04-15T02:23:14.735Z,58.11
2018-04-15T02:24:14.934Z,59.08
2018-04-15T02:25:15.113Z,59.33
2018-04-15T02:26:15.262Z,57.86
2018-04-15T02:27:15.441Z,58.11
2018-04-15T02:28:15.610Z,57.37
2018-04-15T02:29:15.788Z,58.35
2018-04-15T02:30:15.970Z,59.57
2018-04-15T02:31:16.157Z,59.81
2018-04-15T02:32:16.339Z,58.35
2018-04-15T02:33:16.518Z,59.57
2018-04-15T02:34:16.696Z,59.08
2018-04-15T02:35:16.871Z,60.06
2018-04-15T02:36:17.060Z,60.79
2018-04-15T02:37:17.240Z,54.20
2018-04-15T02:38:17.424Z,60.30
2018-04-15T02:39:17.842Z,59.08
2018-04-15T02:40:20.297Z,60.06
2018-04-15T02:41:17.982Z,60.30
2018-04-15T02:42:18.156Z,60.06
2018-04-15T02:43:18.342Z,59.08
2018-04-15T02:44:18.528Z,49.80
2018-04-15T02:45:18.704Z,63.96
2018-04-15T02:46:18.893Z,59.33
2018-04-15T02:47:19.067Z,53.71
2018-04-15T02:48:19.246Z,55.18
2018-04-15T02:49:19.435Z,55.91
2018-04-15T02:50:19.608Z,54.44
2018-04-15T02:51:19.802Z,61.04
2018-04-15T02:52:19.996Z,62.01
2018-04-15T02:53:20.183Z,62.99
2018-04-15T02:54:20.359Z,57.37
2018-04-15T02:55:20.543Z,52.25
2018-04-15T02:56:20.722Z,51.76
2018-04-15T02:57:20.921Z,57.13
2018-04-15T02:58:21.094Z,59.33
2018-04-15T02:59:21.264Z,63.48
2018-04-15T03:00:21.447Z,56.15
2018-04-15T03:01:21.621Z,60.30
2018-04-15T03:02:21.803Z,58.84
2018-04-15T03:03:21.988Z,58.35
2018-04-15T03:04:22.169Z,52.73
2018-04-15T03:05:22.348Z,54.20
2018-04-15T03:06:22.534Z,59.08
2018-04-15T03:07:22.714Z,59.08
2018-04-15T03:08:22.897Z,54.69
2018-04-15T03:09:23.073Z,59.33
2018-04-15T03:10:23.255Z,58.35
2018-04-15T03:11:23.427Z,61.52
2018-04-15T03:12:23.611Z,58.35
2018-04-15T03:13:23.791Z,58.59
2018-04-15T03:14:23.978Z,58.84
2018-04-15T03:15:24.176Z,54.20
2018-04-15T03:16:24.361Z,56.15
2018-04-15T03:17:24.541Z,54.93
2018-04-15T03:18:24.709Z,54.69
2018-04-15T03:19:24.896Z,66.65
2018-04-15T03:20:25.061Z,52.00
2018-04-15T03:21:25.247Z,54.44
2018-04-15T03:22:25.425Z,53.96
2018-04-15T03:23:25.608Z,59.57
2018-04-15T03:24:25.785Z,59.08
2018-04-15T03:25:25.969Z,60.30
2018-04-15T03:26:26.152Z,59.33
2018-04-15T03:27:26.334Z,61.28
2018-04-15T03:28:26.511Z,57.37
2018-04-15T03:29:26.691Z,60.79
2018-04-15T03:30:26.882Z,60.55
2018-04-15T03:31:27.081Z,61.28
2018-04-15T03:32:27.234Z,59.81
2018-04-15T03:33:27.414Z,60.06
2018-04-15T03:34:27.594Z,60.55
2018-04-15T03:35:27.773Z,60.79
2018-04-15T03:36:27.957Z,58.11
2018-04-15T03:37:28.139Z,59.81
2018-04-15T03:38:28.321Z,57.86
2018-04-15T03:39:28.506Z,58.35
2018-04-15T03:40:28.680Z,58.59
2018-04-15T03:41:28.863Z,58.11
2018-04-15T03:42:29.041Z,63.72
2018-04-15T03:43:29.220Z,63.72
2018-04-15T03:44:29.419Z,58.84
2018-04-15T03:45:29.606Z,59.57
2018-04-15T03:46:29.776Z,59.08
2018-04-15T03:47:29.962Z,62.50
2018-04-15T03:48:30.132Z,59.81
2018-04-15T03:49:30.313Z,56.64
2018-04-15T03:50:30.492Z,59.08
2018-04-15T03:51:30.686Z,67.63
2018-04-15T03:52:30.860Z,57.86
2018-04-15T03:53:31.061Z,55.91
2018-04-15T03:54:31.226Z,56.64
2018-04-15T03:55:31.391Z,58.11
2018-04-15T03:56:31.569Z,61.04
2018-04-15T03:58:31.916Z,62.99
2018-04-15T03:59:32.101Z,67.14
2018-04-15T04:00:32.270Z,67.38
2018-04-15T04:01:32.449Z,57.13
2018-04-15T04:02:32.630Z,72.51
2018-04-15T04:03:32.827Z,55.66
2018-04-15T04:04:32.998Z,60.55
2018-04-15T04:05:33.168Z,57.37
2018-04-15T04:06:33.348Z,59.57
2018-04-15T04:07:33.534Z,55.66
2018-04-15T04:08:33.711Z,59.33
2018-04-15T04:09:33.884Z,58.11
2018-04-15T04:10:34.062Z,55.42
2018-04-15T04:11:34.238Z,60.30
2018-04-15T04:12:34.419Z,57.86
2018-04-15T04:13:34.600Z,60.55
2018-04-15T04:14:34.782Z,59.81
2018-04-15T04:15:34.951Z,69.82
2018-04-15T04:16:35.136Z,59.81
2018-04-15T04:17:35.313Z,58.59
2018-04-15T04:18:35.488Z,58.59
2018-04-15T04:19:35.670Z,57.37
2018-04-15T04:20:35.856Z,61.28
2018-04-15T04:21:36.038Z,58.84
2018-04-15T04:22:36.227Z,66.16
2018-04-15T04:23:36.393Z,58.35
2018-04-15T04:24:36.578Z,66.41
2018-04-15T04:25:36.758Z,61.52
2018-04-15T04:26:36.934Z,59.81
2018-04-15T04:27:37.114Z,60.30
2018-04-15T04:28:37.297Z,59.08
2018-04-15T04:29:37.518Z,60.06
2018-04-15T04:30:37.661Z,68.36
2018-04-15T04:31:37.845Z,57.86
2018-04-15T04:32:38.025Z,61.04
2018-04-15T04:33:38.201Z,66.65
2018-04-15T04:34:38.381Z,62.50
2018-04-15T04:35:38.559Z,58.84
2018-04-15T04:36:38.741Z,56.15
2018-04-15T04:37:38.932Z,67.38
2018-04-15T04:38:39.097Z,64.21
2018-04-15T04:39:39.280Z,66.16
2018-04-15T04:40:39.463Z,55.66
2018-04-15T04:41:39.645Z,58.35
2018-04-15T04:42:39.816Z,51.51
2018-04-15T04:43:40.005Z,53.47
2018-04-15T04:44:40.192Z,54.93
2018-04-15T04:45:40.378Z,66.41
2018-04-15T04:46:40.547Z,64.21
2018-04-15T04:47:40.726Z,62.26
2018-04-15T04:48:41.153Z,60.30
2018-04-15T04:49:41.083Z,59.57
2018-04-15T04:50:41.257Z,50.78
2018-04-15T04:51:41.447Z,57.86
2018-04-15T04:52:41.622Z,55.66
2018-04-15T04:53:41.803Z,53.22
2018-04-15T04:54:41.979Z,55.42
2018-04-15T04:55:42.165Z,58.35
2018-04-15T04:56:42.345Z,63.96
2018-04-15T04:57:42.531Z,57.86
2018-04-15T04:58:42.701Z,67.63
2018-04-15T04:59:42.884Z,60.30
2018-04-15T05:00:43.063Z,69.58
2018-04-15T05:01:43.485Z,66.41
2018-04-15T05:02:43.429Z,66.89
2018-04-15T05:03:43.611Z,67.14
2018-04-15T05:04:43.798Z,58.35
2018-04-15T05:05:44.230Z,57.86
2018-04-15T05:06:44.153Z,63.72
2018-04-15T05:07:44.330Z,66.89
2018-04-15T05:08:44.527Z,63.72
2018-04-15T05:09:44.689Z,68.36
2018-04-15T05:10:45.840Z,62.01
2018-04-15T05:11:45.016Z,66.89
2018-04-15T05:12:45.204Z,67.87
2018-04-15T05:13:45.388Z,53.22
2018-04-15T05:14:45.543Z,53.71
2018-04-15T05:15:45.719Z,69.82
2018-04-15T05:16:45.902Z,53.71
2018-04-15T05:17:46.069Z,63.96
2018-04-15T05:18:46.243Z,65.67
2018-04-15T05:19:46.422Z,51.27
2018-04-15T05:20:46.596Z,63.48
2018-04-15T05:21:46.780Z,66.41
2018-04-15T05:22:46.952Z,67.63
2018-04-15T05:23:47.136Z,57.37
2018-04-15T05:24:47.315Z,57.37
2018-04-15T05:25:47.494Z,59.81
2018-04-15T05:26:47.664Z,50.54
2018-04-15T05:27:47.842Z,62.50
2018-04-15T05:28:48.032Z,65.19
2018-04-15T05:29:48.201Z,63.48
2018-04-15T05:30:48.384Z,71.29
2018-04-15T05:31:48.566Z,65.19
2018-04-15T05:32:48.749Z,67.38
2018-04-15T05:33:48.937Z,64.45
2018-04-15T05:34:49.114Z,60.55
2018-04-15T05:35:49.288Z,62.74
2018-04-15T05:36:49.471Z,55.42
2018-04-15T05:37:49.651Z,58.35
2018-04-15T05:38:49.835Z,60.55
2018-04-15T05:39:50.017Z,67.63
2018-04-15T05:40:50.186Z,60.06
2018-04-15T05:41:50.366Z,61.04
2018-04-15T05:42:50.558Z,59.33
2018-04-15T05:43:50.730Z,60.55
2018-04-15T05:44:50.921Z,62.01
2018-04-15T05:45:51.079Z,69.58
2018-04-15T05:46:51.259Z,62.01
2018-04-15T05:47:51.442Z,64.21
2018-04-15T05:48:51.609Z,54.69
2018-04-15T05:49:51.779Z,57.37
2018-04-15T05:50:51.956Z,51.03
2018-04-15T05:51:52.135Z,57.62
2018-04-15T05:52:52.318Z,58.84
2018-04-15T05:53:52.555Z,60.55
2018-04-15T05:54:52.681Z,81.79
2018-04-15T05:55:52.864Z,67.87
2018-04-15T05:56:53.045Z,62.01
2018-04-15T05:57:53.232Z,59.08
2018-04-15T05:58:53.414Z,64.70
2018-04-15T05:59:53.598Z,62.26
2018-04-15T06:00:53.761Z,68.60
2018-04-15T06:01:53.947Z,61.04
2018-04-15T06:02:54.131Z,63.23
2018-04-15T06:03:54.315Z,63.72
2018-04-15T06:04:54.504Z,66.65
2018-04-15T06:05:54.677Z,66.16
2018-04-15T06:06:54.863Z,67.38
2018-04-15T06:07:55.287Z,68.36
2018-04-15T06:08:55.229Z,65.19
2018-04-15T06:09:55.408Z,63.72
2018-04-15T06:10:55.595Z,60.79
2018-04-15T06:11:55.769Z,69.09
2018-04-15T06:12:55.954Z,70.07
2018-04-15T06:13:56.146Z,60.30
2018-04-15T06:14:56.337Z,67.14
2018-04-15T06:15:56.497Z,65.67
2018-04-15T06:16:56.675Z,69.34
2018-04-15T06:17:56.852Z,68.60
2018-04-15T06:18:57.037Z,63.96
2018-04-15T06:19:57.465Z,65.92
2018-04-15T06:20:57.404Z,64.70
2018-04-15T06:21:57.589Z,66.89
2018-04-15T06:22:57.768Z,66.65
2018-04-15T06:23:57.961Z,63.48
2018-04-15T06:24:58.131Z,66.16
2018-04-15T06:25:58.305Z,85.45
2018-04-15T06:26:58.489Z,59.57
2018-04-15T06:27:58.657Z,65.43
2018-04-15T06:28:58.835Z,64.45
2018-04-15T06:29:59.019Z,67.63
2018-04-15T06:30:59.199Z,66.89
2018-04-15T06:31:59.382Z,61.77
2018-04-15T06:32:59.640Z,60.06
2018-04-15T06:33:59.756Z,61.28
2018-04-15T06:34:59.939Z,58.11
2018-04-15T06:36:00.133Z,56.88
2018-04-15T06:37:00.306Z,61.77
2018-04-15T06:38:00.486Z,61.52
2018-04-15T06:39:00.676Z,73.49
2018-04-15T06:40:00.859Z,67.63
2018-04-15T06:41:01.037Z,71.29
2018-04-15T06:42:01.223Z,69.82
2018-04-15T06:43:01.415Z,69.34
2018-04-15T06:44:01.611Z,56.88
2018-04-15T06:45:01.768Z,72.51
2018-04-15T06:46:01.947Z,57.37
2018-04-15T06:47:02.127Z,54.20
2018-04-15T06:48:02.302Z,67.63
2018-04-15T06:49:02.481Z,66.65
2018-04-15T06:50:02.655Z,65.19
2018-04-15T06:51:02.839Z,61.77
2018-04-15T06:52:03.037Z,64.45
2018-04-15T06:53:03.201Z,64.45
2018-04-15T06:54:03.623Z,52.98
2018-04-15T06:55:03.602Z,55.42
2018-04-15T06:56:03.738Z,62.50
2018-04-15T06:57:03.921Z,59.08
2018-04-15T06:58:04.123Z,67.63
2018-04-15T06:59:04.269Z,70.80
2018-04-15T07:00:04.463Z,70.07
2018-04-15T07:01:04.639Z,77.88
2018-04-15T07:02:04.818Z,61.04
2018-04-15T07:03:05.006Z,59.81
2018-04-15T07:04:05.186Z,50.54
2018-04-15T07:05:05.367Z,58.35
2018-04-15T07:06:05.551Z,60.79
2018-04-15T07:07:05.737Z,55.42
2018-04-15T07:08:05.900Z,57.62
2018-04-15T07:09:06.079Z,57.62
2018-04-15T07:10:06.797Z,64.21
2018-04-15T07:12:06.583Z,56.64
2018-04-15T07:13:06.756Z,60.55
2018-04-15T07:14:06.955Z,58.35
2018-04-15T07:15:07.117Z,66.65
2018-04-15T07:16:07.298Z,69.58
2018-04-15T07:17:07.479Z,68.36
2018-04-15T07:18:07.673Z,63.96
2018-04-15T07:19:07.849Z,69.58
2018-04-15T07:20:08.033Z,58.84
2018-04-15T07:21:08.206Z,58.35
2018-04-15T07:22:08.395Z,51.51
2018-04-15T07:23:08.576Z,60.06
2018-04-15T07:24:08.759Z,55.42
2018-04-15T07:25:08.949Z,62.50
2018-04-15T07:26:09.117Z,63.48
2018-04-15T07:27:09.309Z,62.01
2018-04-15T07:28:09.503Z,62.50
2018-04-15T07:29:09.668Z,62.26
2018-04-15T07:30:09.846Z,67.38
2018-04-15T07:31:10.045Z,67.38
2018-04-15T07:32:10.212Z,69.58
2018-04-15T07:33:10.386Z,62.01
2018-04-15T07:34:10.583Z,61.28
2018-04-15T07:35:10.733Z,72.02
2018-04-15T07:36:10.914Z,70.31
2018-04-15T07:37:11.095Z,79.10
2018-04-15T07:38:11.276Z,65.92
2018-04-15T07:39:11.442Z,63.72
2018-04-15T07:40:11.622Z,66.16
2018-04-15T07:41:11.831Z,62.01
2018-04-15T07:42:11.973Z,59.57
2018-04-15T07:43:12.181Z,63.96
2018-04-15T07:44:12.330Z,68.85
2018-04-15T07:45:12.515Z,67.63
2018-04-15T07:46:12.673Z,64.94
2018-04-15T07:47:12.859Z,63.23
2018-04-15T07:48:13.035Z,61.04
2018-04-15T07:49:13.205Z,61.28
2018-04-15T07:50:13.382Z,65.43
2018-04-15T07:51:13.564Z,68.60
2018-04-15T07:52:13.755Z,58.84
2018-04-15T07:53:13.924Z,54.20
2018-04-15T07:54:14.129Z,66.65
2018-04-15T07:55:14.287Z,68.36
2018-04-15T07:56:14.524Z,60.06
2018-04-15T07:57:14.661Z,60.79
2018-04-15T07:58:14.834Z,64.70
2018-04-15T07:59:14.996Z,57.62
2018-04-15T08:00:15.193Z,68.60
2018-04-15T08:01:15.360Z,66.41
2018-04-15T08:02:15.564Z,60.30
2018-04-15T08:03:15.737Z,58.59
2018-04-15T08:04:15.917Z,54.69
2018-04-15T08:05:16.093Z,62.50
2018-04-15T08:06:16.284Z,62.74
2018-04-15T08:07:16.453Z,59.33
2018-04-15T08:08:16.638Z,59.81
2018-04-15T08:09:16.830Z,62.99
2018-04-15T08:10:17.007Z,63.96
2018-04-15T08:11:17.195Z,79.83
2018-04-15T08:12:17.380Z,63.23
2018-04-15T08:13:17.565Z,85.21
2018-04-15T08:14:17.747Z,71.53
2018-04-15T08:15:17.930Z,69.82
2018-04-15T08:16:18.122Z,63.48
2018-04-15T08:17:18.293Z,63.72
2018-04-15T08:18:18.475Z,78.37
2018-04-15T08:19:18.647Z,63.72
2018-04-15T08:20:18.837Z,59.57
2018-04-15T08:21:19.014Z,62.26
2018-04-15T08:22:19.430Z,54.44
2018-04-15T08:23:19.372Z,62.50
2018-04-15T08:24:19.554Z,59.81
2018-04-15T08:26:19.913Z,71.04
2018-04-15T08:27:20.098Z,70.80
2018-04-15T08:28:20.266Z,61.04
2018-04-15T08:29:20.466Z,61.04
2018-04-15T08:30:20.651Z,69.58
2018-04-15T08:31:20.840Z,67.87
2018-04-15T08:32:21.020Z,65.19
2018-04-15T08:33:21.209Z,66.65
2018-04-15T08:34:21.379Z,66.16
2018-04-15T08:35:21.566Z,82.28
2018-04-15T08:36:21.760Z,75.93
2018-04-15T08:37:23.143Z,86.18
2018-04-15T08:38:22.178Z,87.16
2018-04-15T08:39:22.352Z,85.21
2018-04-15T08:40:22.531Z,80.81
2018-04-15T08:41:22.708Z,88.38
2018-04-15T08:42:22.907Z,87.89
2018-04-15T08:43:23.084Z,80.81
2018-04-15T08:44:23.274Z,81.05
2018-04-15T08:45:23.456Z,80.32
2018-04-15T08:46:23.644Z,81.79
2018-04-15T08:47:23.823Z,78.86
2018-04-15T08:48:24.001Z,77.39
2018-04-15T08:49:24.189Z,83.25
2018-04-15T08:50:24.351Z,76.17
2018-04-15T08:51:24.539Z,80.57
2018-04-15T08:52:24.721Z,75.44
2018-04-15T08:53:24.920Z,74.46
2018-04-15T08:54:25.101Z,83.25
2018-04-15T08:55:25.280Z,90.58
2018-04-15T08:56:25.452Z,81.30
2018-04-15T08:57:25.625Z,73.24
2018-04-15T08:58:25.820Z,84.72
2018-04-15T08:59:26.838Z,86.43
2018-04-15T09:00:26.152Z,72.75
2018-04-15T09:01:26.336Z,63.96
2018-04-15T09:02:26.533Z,64.70
2018-04-15T09:03:26.714Z,68.36
2018-04-15T09:04:26.881Z,59.33
2018-04-15T09:05:27.067Z,74.95
2018-04-15T09:06:27.253Z,82.03
2018-04-15T09:07:27.438Z,84.72
2018-04-15T09:08:27.617Z,83.25
2018-04-15T09:09:27.799Z,64.45
2018-04-15T09:10:27.988Z,63.23
2018-04-15T09:11:28.159Z,70.31
2018-04-15T09:12:28.345Z,82.76
2018-04-15T09:13:28.532Z,70.56
2018-04-15T09:14:28.723Z,69.34
2018-04-15T09:15:28.908Z,69.82
2018-04-15T09:16:29.093Z,66.41
2018-04-15T09:17:29.276Z,68.12
2018-04-15T09:18:30.398Z,67.14
2018-04-15T09:19:29.706Z,70.31
2018-04-15T09:20:29.916Z,73.00
2018-04-15T09:21:30.081Z,65.67
2018-04-15T09:22:30.264Z,80.08
2018-04-15T09:23:30.433Z,74.22
2018-04-15T09:24:30.616Z,67.63
2018-04-15T09:25:30.794Z,66.65
2018-04-15T09:26:30.985Z,64.70
2018-04-15T09:27:31.164Z,69.09
2018-04-15T09:28:31.350Z,66.41
2018-04-15T09:29:31.546Z,67.63
2018-04-15T09:30:31.725Z,71.29
2018-04-15T09:31:31.933Z,62.74
2018-04-15T09:32:32.099Z,67.38
2018-04-15T09:33:32.277Z,65.92
2018-04-15T09:34:32.480Z,68.85
2018-04-15T09:35:32.636Z,80.81
2018-04-15T09:36:32.834Z,66.65
2018-04-15T09:37:32.991Z,67.87
2018-04-15T09:38:33.192Z,79.83
2018-04-15T09:39:33.419Z,74.95
2018-04-15T09:40:33.578Z,88.13
2018-04-15T09:41:33.814Z,80.08
2018-04-15T09:42:33.998Z,66.41
2018-04-15T09:43:34.188Z,75.44
2018-04-15T09:44:34.373Z,85.45
2018-04-15T09:45:34.558Z,74.95
2018-04-15T09:46:34.730Z,72.27
2018-04-15T09:47:34.919Z,78.37
2018-04-15T09:48:35.094Z,74.46
2018-04-15T09:49:35.277Z,63.72
2018-04-15T09:50:35.475Z,55.91
2018-04-15T09:51:35.658Z,61.52
2018-04-15T09:52:35.853Z,66.65
2018-04-15T09:53:35.994Z,64.70
2018-04-15T09:54:36.167Z,66.89
2018-04-15T09:55:36.353Z,71.29
2018-04-15T09:56:36.591Z,75.44
2018-04-15T09:57:36.719Z,60.55
2018-04-15T09:58:36.898Z,63.23
2018-04-15T09:59:37.085Z,64.21
2018-04-15T10:00:37.244Z,68.36
2018-04-15T10:01:37.425Z,69.34
2018-04-15T10:02:37.622Z,65.67
2018-04-15T10:03:37.810Z,60.06
2018-04-15T10:04:37.956Z,63.96
2018-04-15T10:05:38.848Z,60.06
2018-04-15T10:06:38.291Z,64.21
2018-04-15T10:07:38.481Z,60.06
2018-04-15T10:08:38.643Z,68.85
2018-04-15T10:09:38.814Z,67.38
2018-04-15T10:10:39.005Z,62.50
2018-04-15T10:11:39.196Z,63.96
2018-04-15T10:12:39.404Z,76.90
2018-04-15T10:13:39.568Z,71.29
2018-04-15T10:14:39.754Z,69.34
2018-04-15T10:15:39.953Z,69.34
2018-04-15T10:16:40.132Z,81.54
2018-04-15T10:17:40.296Z,77.39
2018-04-15T10:18:40.482Z,75.44
2018-04-15T10:19:40.699Z,76.17
2018-04-15T10:20:40.882Z,71.29
2018-04-15T10:21:41.089Z,73.00
2018-04-15T10:22:41.269Z,71.29
2018-04-15T10:23:41.421Z,71.53
2018-04-15T10:24:41.598Z,67.63
2018-04-15T10:25:41.795Z,67.14
2018-04-15T10:26:41.989Z,60.79
2018-04-15T10:27:42.152Z,72.27
2018-04-15T10:28:42.375Z,64.94
2018-04-15T10:29:42.523Z,62.26
2018-04-15T10:30:42.701Z,75.20
2018-04-15T10:31:42.900Z,79.10
2018-04-15T10:32:43.091Z,85.45
2018-04-15T10:33:43.257Z,73.73
2018-04-15T10:34:43.441Z,68.85
2018-04-15T10:35:43.618Z,77.64
2018-04-15T10:36:43.803Z,77.39
2018-04-15T10:37:43.987Z,65.67
2018-04-15T10:38:44.245Z,74.71
2018-04-15T10:39:44.368Z,63.23
2018-04-15T10:40:44.546Z,69.09
2018-04-15T10:41:44.707Z,74.46
2018-04-15T10:42:44.880Z,80.08
2018-04-15T10:43:45.116Z,66.41
2018-04-15T10:44:45.289Z,77.88
2018-04-15T10:45:45.549Z,69.34
2018-04-15T10:46:45.752Z,80.81
2018-04-15T10:47:45.904Z,74.46
2018-04-15T10:48:46.099Z,75.68
2018-04-15T10:49:46.262Z,74.71
2018-04-15T10:50:46.468Z,74.22
2018-04-15T10:51:46.680Z,76.66
2018-04-15T10:52:46.824Z,68.60
2018-04-15T10:53:47.033Z,71.29
2018-04-15T10:54:47.184Z,77.39
2018-04-15T10:55:47.383Z,66.89
2018-04-15T10:56:47.636Z,74.46
2018-04-15T10:57:47.930Z,69.34
2018-04-15T10:58:48.043Z,77.64
2018-04-15T10:59:48.281Z,75.93
2018-04-15T11:00:48.426Z,74.71
2018-04-15T11:01:48.648Z,76.42
2018-04-15T11:02:48.788Z,72.75
2018-04-15T11:03:48.990Z,74.22
2018-04-15T11:04:49.186Z,68.12
2018-04-15T11:05:49.380Z,79.59
2018-04-15T11:06:49.629Z,85.94
2018-04-15T11:07:49.719Z,81.79
2018-04-15T11:08:49.893Z,84.96
2018-04-15T11:09:50.110Z,88.62
2018-04-15T11:10:50.249Z,99.85
2018-04-15T11:11:50.475Z,93.99
2018-04-15T11:12:50.636Z,68.60
2018-04-15T11:13:50.845Z,76.17
2018-04-15T11:14:50.916Z,77.88
2018-04-15T11:15:51.094Z,83.50
2018-04-15T11:16:51.293Z,78.37
2018-04-15T11:17:51.455Z,75.68
2018-04-15T11:18:51.616Z,70.80
2018-04-15T11:19:51.812Z,64.21
2018-04-15T11:20:51.972Z,67.14
2018-04-15T11:21:52.150Z,70.56
2018-04-15T11:22:52.353Z,60.79
2018-04-15T11:23:52.527Z,67.87
2018-04-15T11:24:52.711Z,73.00
2018-04-15T11:25:52.938Z,93.75
2018-04-15T11:26:53.120Z,67.87
2018-04-15T11:27:53.353Z,68.12
2018-04-15T11:28:53.627Z,70.56
2018-04-15T11:29:53.747Z,70.07
2018-04-15T11:30:53.915Z,67.14
2018-04-15T11:31:54.079Z,70.31
2018-04-15T11:32:54.297Z,72.27
2018-04-15T11:33:58.100Z,69.82
2018-04-15T11:34:54.644Z,66.41
2018-04-15T11:35:54.819Z,73.49
2018-04-15T11:36:54.997Z,74.22
2018-04-15T11:37:55.153Z,73.49
2018-04-15T11:38:55.337Z,68.85
2018-04-15T11:39:55.510Z,71.29
2018-04-15T11:40:55.672Z,76.90
2018-04-15T11:41:55.866Z,65.67
2018-04-15T11:42:56.098Z,71.53
2018-04-15T11:43:56.290Z,73.00
2018-04-15T11:44:56.501Z,68.60
2018-04-15T11:45:56.695Z,68.12
2018-04-15T11:46:56.875Z,62.26
2018-04-15T11:47:57.046Z,60.30
2018-04-15T11:48:57.222Z,70.31
2018-04-15T11:49:57.446Z,76.90
2018-04-15T11:50:58.464Z,75.93
2018-04-15T11:51:57.766Z,68.36
2018-04-15T11:52:57.965Z,66.41
2018-04-15T11:53:58.182Z,60.79
2018-04-15T11:54:58.392Z,75.93
2018-04-15T11:55:58.621Z,72.75
2018-04-15T11:56:58.748Z,73.97
2018-04-15T11:57:58.967Z,67.38
2018-04-15T11:58:59.149Z,64.94
2018-04-15T11:59:59.395Z,66.41
2018-04-15T12:00:59.549Z,65.67
2018-04-15T12:01:59.698Z,65.67
2018-04-15T12:04:00.091Z,63.23
2018-04-15T12:05:00.281Z,63.23
2018-04-15T12:06:00.590Z,62.26
2018-04-15T12:07:00.627Z,65.92
2018-04-15T12:08:00.751Z,64.45
2018-04-15T12:09:00.968Z,60.79
2018-04-15T12:10:01.153Z,59.33
2018-04-15T12:11:01.291Z,65.67
2018-04-15T12:12:01.519Z,60.55
2018-04-15T12:14:01.826Z,67.63
2018-04-15T12:15:02.013Z,67.63
2018-04-15T12:16:02.214Z,59.57
2018-04-15T12:17:02.440Z,60.79
2018-04-15T12:18:02.608Z,58.84
2018-04-15T12:19:02.858Z,64.21
2018-04-15T12:20:03.075Z,58.84
2018-04-15T12:21:03.268Z,70.56
2018-04-15T12:22:03.363Z,57.86
2018-04-15T12:23:03.581Z,62.99
2018-04-15T12:24:03.989Z,59.81
2018-04-15T12:25:03.905Z,60.30
2018-04-15T12:26:04.079Z,62.99
2018-04-15T12:27:04.256Z,64.94
2018-04-15T12:28:04.434Z,67.38
2018-04-15T12:29:04.611Z,59.81
2018-04-15T12:30:04.786Z,65.67
2018-04-15T12:31:05.022Z,62.50
2018-04-15T12:32:05.149Z,71.78
2018-04-15T12:33:05.352Z,63.48
2018-04-15T12:34:05.507Z,58.35
2018-04-15T12:35:07.496Z,65.92
2018-04-15T12:36:05.884Z,75.68
2018-04-15T12:37:06.074Z,65.43
2018-04-15T12:38:06.340Z,65.43
2018-04-15T12:39:06.490Z,73.24
2018-04-15T12:40:06.713Z,67.63
2018-04-15T12:41:06.829Z,62.50
2018-04-15T12:42:07.012Z,66.16
2018-04-15T12:43:07.242Z,62.01
2018-04-15T12:44:07.411Z,65.92
2018-04-15T12:45:07.585Z,68.12
2018-04-15T12:46:07.771Z,71.29
2018-04-15T12:47:08.006Z,72.51
2018-04-15T12:48:08.203Z,80.08
2018-04-15T12:49:08.352Z,77.15
2018-04-15T12:50:08.556Z,76.90
2018-04-15T12:51:08.738Z,81.30
2018-04-15T12:52:08.944Z,77.64
2018-04-15T12:53:09.114Z,59.57
2018-04-15T12:54:09.276Z,69.09
2018-04-15T12:55:09.741Z,58.35
2018-04-15T12:56:09.679Z,61.52
2018-04-15T12:57:09.866Z,61.04
2018-04-15T12:58:10.014Z,59.08
2018-04-15T12:59:10.239Z,66.41
2018-04-15T13:00:10.415Z,69.09